Time;durP1;ratioP1;P1;durP2;ratioP2;P2;SDS_P1;SDS_P2;PMS_P1;PMS_P2;Temp;Humidity;BMP_temperature;BMP_pressure;BME280_temperature;BME280_humidity;BME280_pressure;Samples;Min_cycle;Max_cycle;Signal;HPM_P1;HPM_P2
2022/03/23 00:00:17;;;;;;;31.63;13.82;;;5.80;99.90;;;;;;5145530;28;20047;-76
2022/03/23 00:02:47;;;;;;;36.65;15.15;;;5.80;99.90;;;;;;5145832;28;20030;-74
2022/03/23 00:05:18;;;;;;;38.35;16.17;;;5.90;99.90;;;;;;5128697;28;20034;-74
2022/03/23 00:07:49;;;;;;;34.65;15.80;;;5.80;99.90;;;;;;5128708;28;20093;-74
2022/03/23 00:10:20;;;;;;;37.17;15.25;;;5.80;99.90;;;;;;5145601;28;20534;-74
2022/03/23 00:12:51;;;;;;;43.13;15.68;;;6.00;99.90;;;;;;5148867;28;20035;-74
2022/03/23 00:15:22;;;;;;;45.25;16.40;;;5.90;99.90;;;;;;5149745;28;20074;-74
2022/03/23 00:17:53;;;;;;;35.95;15.95;;;5.90;99.90;;;;;;5149851;28;20073;-76
2022/03/23 00:20:24;;;;;;;33.60;15.95;;;5.90;99.90;;;;;;5149891;28;20439;-76
2022/03/23 00:22:55;;;;;;;41.60;17.25;;;5.90;99.90;;;;;;5149825;28;20415;-74
2022/03/23 00:25:26;;;;;;;46.63;16.75;;;5.90;99.90;;;;;;5149768;28;20035;-74
2022/03/23 00:27:57;;;;;;;45.72;17.17;;;5.90;99.90;;;;;;5149407;28;20019;-75
2022/03/23 00:30:28;;;;;;;35.70;15.68;;;6.00;99.90;;;;;;5149718;28;20077;-76
2022/03/23 00:33:02;;;;;;;40.05;16.08;;;5.90;99.90;;;;;;5149373;28;20019;-75
2022/03/23 00:35:33;;;;;;;36.05;16.13;;;6.00;99.90;;;;;;5149741;28;20383;-74
2022/03/23 00:38:04;;;;;;;46.42;17.13;;;6.00;99.90;;;;;;5148019;28;20030;-75
2022/03/23 00:40:35;;;;;;;45.08;16.00;;;6.00;99.90;;;;;;5149450;28;20039;-74
2022/03/23 00:43:05;;;;;;;37.53;16.77;;;6.00;99.90;;;;;;5149316;28;20053;-74
2022/03/23 00:45:40;;;;;;;45.47;16.55;;;6.00;99.90;;;;;;5149158;28;20050;-74
2022/03/23 00:48:11;;;;;;;47.97;15.13;;;6.00;99.90;;;;;;5149089;28;20022;-74
2022/03/23 00:50:42;;;;;;;38.20;15.55;;;6.00;99.90;;;;;;5149079;28;20030;-74
2022/03/23 00:53:13;;;;;;;41.30;16.27;;;6.00;99.90;;;;;;5149123;28;20031;-74
2022/03/23 00:55:44;;;;;;;31.48;14.05;;;6.00;99.90;;;;;;5149441;28;20456;-74
2022/03/23 00:58:15;;;;;;;31.65;13.93;;;6.10;99.90;;;;;;5148872;28;20081;-74
2022/03/23 01:00:47;;;;;;;27.35;13.13;;;6.10;99.90;;;;;;5149078;28;20407;-74
2022/03/23 01:03:18;;;;;;;33.35;13.35;;;6.00;99.90;;;;;;5148948;28;20391;-74
2022/03/23 01:05:51;;;;;;;34.25;12.93;;;6.00;99.90;;;;;;5148784;28;20042;-76
2022/03/23 01:08:22;;;;;;;34.65;12.02;;;6.10;99.90;;;;;;5148835;28;20034;-74
2022/03/23 01:10:53;;;;;;;34.13;12.63;;;6.00;99.90;;;;;;5147810;28;20019;-76
2022/03/23 01:13:23;;;;;;;36.97;12.93;;;5.90;99.90;;;;;;5148760;28;20082;-74
2022/03/23 01:15:54;;;;;;;38.72;13.75;;;5.80;99.90;;;;;;5131357;28;20059;-74
2022/03/23 01:18:25;;;;;;;29.90;12.18;;;6.00;99.90;;;;;;5148355;28;20046;-76
2022/03/23 01:20:56;;;;;;;26.75;11.38;;;5.90;99.90;;;;;;5148649;28;20087;-76
2022/03/23 01:23:27;;;;;;;35.97;10.85;;;6.00;99.90;;;;;;5147581;28;20443;-75
2022/03/23 01:25:58;;;;;;;35.40;11.82;;;6.00;99.90;;;;;;5148609;28;20046;-75
2022/03/23 01:28:29;;;;;;;28.58;12.10;;;6.00;99.90;;;;;;5148212;28;20027;-75
2022/03/23 01:31:00;;;;;;;38.63;12.93;;;6.00;99.90;;;;;;5148229;28;20434;-76
2022/03/23 01:33:30;;;;;;;33.05;12.57;;;5.90;99.90;;;;;;5148359;28;20049;-75
2022/03/23 01:36:02;;;;;;;32.95;12.23;;;5.90;99.90;;;;;;5148275;28;20498;-75
2022/03/23 01:38:33;;;;;;;32.17;13.48;;;5.80;99.90;;;;;;5148320;28;20106;-75
2022/03/23 01:41:04;;;;;;;32.92;11.30;;;5.90;99.90;;;;;;5146899;28;20110;-75
2022/03/23 01:43:35;;;;;;;38.03;12.23;;;6.00;99.90;;;;;;5130876;28;20027;-75
2022/03/23 01:46:06;;;;;;;33.20;12.20;;;5.90;99.90;;;;;;5147952;28;20035;-75
2022/03/23 01:48:37;;;;;;;33.50;12.25;;;5.90;99.90;;;;;;5146972;28;20027;-74
2022/03/23 01:51:08;;;;;;;35.33;12.02;;;5.90;99.90;;;;;;5147843;28;20063;-75
2022/03/23 01:53:39;;;;;;;32.85;13.38;;;5.80;99.90;;;;;;5148020;28;20031;-75
2022/03/23 01:56:13;;;;;;;32.67;12.40;;;5.90;99.90;;;;;;5130850;28;20430;-76
2022/03/23 01:58:44;;;;;;;35.88;13.73;;;5.90;99.90;;;;;;5147658;28;20035;-75
2022/03/23 02:01:16;;;;;;;40.65;12.95;;;5.90;99.90;;;;;;5130348;28;20073;-76
2022/03/23 02:03:46;;;;;;;41.92;12.77;;;6.10;99.90;;;;;;5147729;28;20110;-74
2022/03/23 02:06:17;;;;;;;35.28;12.35;;;6.00;99.90;;;;;;5147520;28;20165;-75
2022/03/23 02:08:48;;;;;;;40.42;12.13;;;6.00;99.90;;;;;;5147753;28;20073;-74
2022/03/23 02:11:19;;;;;;;41.53;12.65;;;6.10;99.90;;;;;;5147591;28;20536;-74
2022/03/23 02:13:53;;;;;;;30.38;12.15;;;6.10;99.90;;;;;;5147573;28;20154;-74
2022/03/23 02:16:24;;;;;;;35.90;12.25;;;6.10;99.90;;;;;;5147893;28;20030;-74
2022/03/23 02:18:55;;;;;;;34.38;12.00;;;6.10;99.90;;;;;;5147563;28;20035;-74
2022/03/23 02:21:27;;;;;;;36.30;12.05;;;6.00;99.90;;;;;;5147422;28;20029;-75
2022/03/23 02:23:58;;;;;;;30.10;10.65;;;6.10;99.90;;;;;;5147237;28;20170;-75
2022/03/23 02:26:29;;;;;;;46.25;15.65;;;6.10;99.90;;;;;;5147368;28;20114;-75
2022/03/23 02:29:01;;;;;;;77.70;27.55;;;6.20;99.90;;;;;;5147109;28;20073;-74
2022/03/23 02:31:32;;;;;;;46.85;17.20;;;6.20;99.90;;;;;;5147243;28;20085;-74
2022/03/23 02:34:04;;;;;;;77.65;35.20;;;6.20;99.90;;;;;;5146489;28;20027;-74
2022/03/23 02:36:35;;;;;;;107.50;42.90;;;6.20;99.90;;;;;;5145645;28;20058;-74
2022/03/23 02:39:06;;;;;;;88.00;26.65;;;6.30;99.90;;;;;;5147128;28;20030;-74
2022/03/23 02:41:37;;;;;;;57.13;18.02;;;6.30;99.90;;;;;;5146128;28;20031;-76
2022/03/23 02:44:08;;;;;;;36.05;11.27;;;6.20;99.90;;;;;;5146930;28;20459;-75
2022/03/23 02:46:39;;;;;;;45.95;13.32;;;6.20;99.90;;;;;;5146955;28;20506;-74
2022/03/23 02:49:10;;;;;;;51.80;14.20;;;6.30;99.90;;;;;;5146888;28;20031;-74
2022/03/23 02:51:42;;;;;;;50.58;12.65;;;6.30;99.90;;;;;;5145522;28;20034;-74
2022/03/23 03:01:52;;;;;;;71.85;27.77;;;6.30;99.90;;;;;;5146657;28;20026;-74
2022/03/23 03:03:44;;;;;;;47.13;17.58;;;6.40;99.90;;;;;;5146860;28;20030;-74
2022/03/23 03:06:15;;;;;;;36.50;12.32;;;6.40;99.90;;;;;;5146440;28;20030;-74
2022/03/23 03:08:47;;;;;;;48.47;15.13;;;6.40;99.90;;;;;;5146674;28;20019;-74
2022/03/23 03:11:19;;;;;;;40.20;13.55;;;6.40;99.90;;;;;;5146656;28;20027;-74
2022/03/23 03:13:51;;;;;;;55.78;20.95;;;6.40;99.90;;;;;;5146472;28;20038;-74
2022/03/23 03:16:22;;;;;;;30.90;11.73;;;6.40;99.90;;;;;;5146581;28;20348;-74
2022/03/23 03:18:53;;;;;;;47.50;20.30;;;6.40;99.90;;;;;;5128919;28;20022;-74
2022/03/23 03:21:24;;;;;;;35.67;10.75;;;6.40;99.90;;;;;;5145075;28;20029;-74
2022/03/23 03:23:55;;;;;;;79.60;29.83;;;6.30;99.90;;;;;;5146301;28;20121;-74
2022/03/23 03:26:26;;;;;;;35.78;13.40;;;6.40;99.90;;;;;;5145054;28;20058;-75
2022/03/23 03:28:57;;;;;;;25.92;8.82;;;6.40;99.90;;;;;;5146118;28;20027;-75
2022/03/23 03:31:28;;;;;;;48.25;17.27;;;6.40;99.90;;;;;;5146335;28;20041;-75
2022/03/23 03:33:59;;;;;;;34.70;11.88;;;6.40;99.90;;;;;;5146289;28;20022;-74
2022/03/23 03:36:30;;;;;;;53.47;22.23;;;6.40;99.90;;;;;;5146298;28;20023;-75
2022/03/23 03:39:01;;;;;;;50.47;15.57;;;6.40;99.90;;;;;;5144969;28;20498;-74
2022/03/23 03:41:32;;;;;;;38.90;12.05;;;6.40;99.90;;;;;;5146159;28;20019;-74
2022/03/23 03:44:03;;;;;;;46.28;19.33;;;6.40;99.90;;;;;;5146328;28;20115;-74
2022/03/23 03:46:34;;;;;;;43.92;17.05;;;6.40;99.90;;;;;;5147390;28;20117;-74
2022/03/23 03:49:05;;;;;;;41.10;12.02;;;6.40;99.90;;;;;;5149104;28;20133;-74
2022/03/23 03:51:36;;;;;;;37.03;11.80;;;6.40;99.90;;;;;;5150230;28;20066;-74
2022/03/23 03:54:07;;;;;;;32.78;11.05;;;6.30;99.90;;;;;;5148998;28;20376;-75
2022/03/23 03:56:38;;;;;;;41.17;12.13;;;6.40;99.90;;;;;;5150458;28;20015;-75
2022/03/23 03:59:09;;;;;;;45.53;15.45;;;6.30;99.90;;;;;;5149784;28;20553;-75
2022/03/23 04:01:40;;;;;;;29.33;6.78;;;6.40;99.90;;;;;;5150511;28;20126;-74
2022/03/23 04:04:11;;;;;;;30.52;8.55;;;6.40;99.90;;;;;;5150073;28;20494;-74
2022/03/23 04:06:42;;;;;;;47.60;17.00;;;6.40;99.90;;;;;;5150036;28;20065;-75
2022/03/23 04:09:13;;;;;;;48.42;19.52;;;6.40;99.90;;;;;;5149659;28;20545;-74
2022/03/23 04:11:44;;;;;;;80.93;36.13;;;6.40;99.90;;;;;;5149749;28;20042;-74
2022/03/23 04:14:16;;;;;;;74.80;28.95;;;6.40;99.90;;;;;;5148523;28;20383;-74
2022/03/23 04:16:47;;;;;;;29.52;11.93;;;6.40;99.90;;;;;;5149872;28;20474;-75
2022/03/23 04:19:18;;;;;;;60.95;21.52;;;6.40;99.90;;;;;;5148566;28;20090;-74
2022/03/23 04:21:49;;;;;;;45.58;16.52;;;6.30;99.90;;;;;;5132217;28;20097;-74
2022/03/23 04:24:20;;;;;;;63.75;26.38;;;6.30;99.90;;;;;;5149523;28;20046;-74
2022/03/23 04:26:50;;;;;;;60.42;20.70;;;6.30;99.90;;;;;;5149606;28;20356;-74
2022/03/23 04:29:24;;;;;;;37.70;16.88;;;6.30;99.90;;;;;;5132001;28;20125;-74
2022/03/23 04:31:55;;;;;;;32.72;11.65;;;6.40;99.90;;;;;;5149514;28;20023;-74
2022/03/23 04:34:26;;;;;;;27.80;6.07;;;6.30;99.90;;;;;;5148126;28;20078;-74
2022/03/23 04:36:57;;;;;;;32.58;14.75;;;6.30;99.90;;;;;;5132655;28;20062;-74
2022/03/23 04:39:35;;;;;;;29.17;6.57;;;6.30;99.90;;;;;;5149319;28;20101;-76
2022/03/23 04:42:15;;;;;;;26.75;7.47;;;6.30;99.90;;;;;;5131999;28;20117;-76
2022/03/23 04:44:50;;;;;;;24.20;6.07;;;6.30;99.90;;;;;;5149208;28;20031;-75
2022/03/23 04:47:30;;;;;;;17.95;5.38;;;6.30;99.90;;;;;;5131850;28;20042;-76
2022/03/23 04:50:02;;;;;;;20.08;7.88;;;6.30;99.90;;;;;;5149310;28;20054;-75
2022/03/23 04:52:33;;;;;;;19.02;4.57;;;6.30;99.90;;;;;;5149300;28;20065;-74
2022/03/23 04:55:06;;;;;;;17.27;4.40;;;6.30;99.90;;;;;;5149289;28;20046;-75
2022/03/23 04:57:37;;;;;;;26.42;3.78;;;6.40;99.90;;;;;;5148762;28;20027;-75
2022/03/23 05:00:13;;;;;;;25.02;4.38;;;6.30;99.90;;;;;;5148449;28;20399;-75
2022/03/23 05:02:45;;;;;;;14.70;4.03;;;6.30;99.90;;;;;;5112009;29;20027;-74
2022/03/23 05:05:16;;;;;;;17.33;3.28;;;6.30;99.90;;;;;;5128755;28;20027;-74
2022/03/23 05:07:47;;;;;;;25.10;3.72;;;6.30;99.90;;;;;;5129007;29;20035;-74
2022/03/23 05:10:18;;;;;;;29.42;4.85;;;6.30;99.90;;;;;;5128888;29;20494;-75
2022/03/23 05:12:50;;;;;;;15.68;2.85;;;6.40;99.90;;;;;;5128569;29;20036;-74
2022/03/23 05:15:21;;;;;;;20.40;3.47;;;6.30;99.90;;;;;;5127632;29;20066;-74
2022/03/23 05:17:52;;;;;;;19.25;4.05;;;6.40;99.90;;;;;;5128674;29;20027;-74
2022/03/23 05:20:24;;;;;;;22.23;3.85;;;6.40;99.90;;;;;;5128951;29;20023;-75
2022/03/23 05:22:55;;;;;;;18.85;3.30;;;6.40;99.90;;;;;;5128830;29;20055;-75
2022/03/23 05:25:26;;;;;;;21.90;3.63;;;6.40;99.90;;;;;;5128443;29;20491;-75
2022/03/23 05:27:57;;;;;;;22.85;3.90;;;6.40;99.90;;;;;;5128616;29;20376;-74
2022/03/23 05:30:28;;;;;;;20.77;3.83;;;6.50;99.90;;;;;;5128597;29;20063;-75
2022/03/23 05:32:58;;;;;;;20.13;3.85;;;6.50;99.90;;;;;;5128577;29;20082;-75
2022/03/23 05:35:29;;;;;;;20.95;3.80;;;6.50;99.90;;;;;;5128235;28;20028;-74
2022/03/23 05:38:00;;;;;;;18.15;3.28;;;6.60;99.90;;;;;;5128321;29;20025;-74
2022/03/23 05:40:31;;;;;;;24.35;3.92;;;6.50;99.90;;;;;;5128315;29;20027;-74
2022/03/23 05:43:02;;;;;;;14.18;3.10;;;6.60;99.90;;;;;;5127714;29;20035;-75
2022/03/23 05:45:35;;;;;;;17.38;3.33;;;6.70;99.90;;;;;;5127881;29;20443;-76
2022/03/23 05:48:06;;;;;;;16.67;3.78;;;6.70;99.90;;;;;;5128191;29;20019;-75
2022/03/23 05:50:37;;;;;;;18.98;3.25;;;6.70;99.90;;;;;;5128188;29;20034;-75
2022/03/23 05:53:08;;;;;;;10.27;2.67;;;6.70;99.90;;;;;;5128160;29;20031;-76
2022/03/23 05:55:39;;;;;;;16.10;3.55;;;6.70;99.90;;;;;;5126873;29;20027;-74
2022/03/23 05:58:10;;;;;;;17.38;3.40;;;6.70;99.90;;;;;;5127864;29;20035;-75
2022/03/23 06:00:41;;;;;;;32.20;13.00;;;6.70;99.90;;;;;;5127772;29;20138;-74
2022/03/23 06:03:12;;;;;;;37.92;17.42;;;6.70;99.90;;;;;;5128238;29;20437;-74
2022/03/23 06:05:43;;;;;;;74.88;36.90;;;6.90;99.90;;;;;;5127664;28;20035;-74
2022/03/23 06:08:14;;;;;;;20.30;4.45;;;6.90;99.90;;;;;;5127634;29;20031;-74
2022/03/23 06:10:44;;;;;;;27.05;11.63;;;6.80;99.90;;;;;;5125825;28;20027;-75
2022/03/23 06:13:15;;;;;;;56.05;29.67;;;6.80;99.90;;;;;;5127735;28;20042;-76
2022/03/23 06:15:46;;;;;;;18.55;6.90;;;6.90;99.90;;;;;;5143444;28;20161;-74
2022/03/23 06:18:17;;;;;;;16.25;5.88;;;7.00;99.90;;;;;;5144379;28;20038;-74
2022/03/23 06:20:48;;;;;;;18.05;5.53;;;7.00;99.90;;;;;;5126209;28;20162;-75
2022/03/23 06:23:19;;;;;;;19.65;3.20;;;6.90;99.90;;;;;;5126171;28;20471;-76
2022/03/23 06:25:50;;;;;;;15.90;4.47;;;6.90;99.90;;;;;;5143938;28;20035;-76
2022/03/23 06:28:21;;;;;;;21.27;5.13;;;7.00;99.90;;;;;;5143900;28;20031;-75
2022/03/23 06:30:53;;;;;;;12.32;4.28;;;7.00;99.90;;;;;;5144275;28;20038;-76
2022/03/23 06:33:24;;;;;;;20.60;3.50;;;7.00;99.90;;;;;;5144035;28;20034;-75
2022/03/23 06:35:55;;;;;;;18.50;3.50;;;7.00;99.90;;;;;;5144120;28;20446;-75
2022/03/23 06:38:25;;;;;;;13.77;3.67;;;7.00;99.90;;;;;;5143393;28;20038;-75
2022/03/23 06:40:56;;;;;;;19.10;3.88;;;7.10;99.90;;;;;;5125908;28;20031;-76
2022/03/23 06:43:27;;;;;;;22.48;3.80;;;7.20;99.90;;;;;;5126309;28;20848;-75
2022/03/23 06:45:58;;;;;;;16.90;3.25;;;7.20;99.90;;;;;;5126211;28;20035;-75
2022/03/23 06:48:29;;;;;;;20.88;2.90;;;7.10;99.90;;;;;;5142980;28;20031;-74
2022/03/23 06:51:00;;;;;;;19.85;3.47;;;7.20;99.90;;;;;;5126126;28;20019;-75
2022/03/23 06:53:31;;;;;;;15.00;3.15;;;7.20;99.90;;;;;;5142569;28;20054;-75
2022/03/23 06:56:02;;;;;;;14.27;3.10;;;7.20;99.90;;;;;;5142944;28;20107;-76
2022/03/23 06:58:32;;;;;;;19.77;3.20;;;7.10;99.90;;;;;;5126423;28;20109;-75
2022/03/23 07:01:04;;;;;;;12.25;2.60;;;7.20;99.90;;;;;;5140052;28;20065;-75
2022/03/23 07:03:34;;;;;;;11.85;3.25;;;7.10;99.90;;;;;;5125845;28;20032;-74
2022/03/23 07:06:05;;;;;;;14.98;3.05;;;7.10;99.90;;;;;;5139374;28;20061;-74
2022/03/23 07:11:25;;;;;;;12.73;2.83;;;7.20;99.90;;;;;;5142346;28;20085;-78
2022/03/23 07:13:57;;;;;;;11.07;2.60;;;7.10;99.90;;;;;;5141057;28;20059;-78
2022/03/23 07:16:28;;;;;;;15.32;3.35;;;7.10;99.90;;;;;;5142357;28;20035;-73
2022/03/23 07:18:59;;;;;;;14.00;3.03;;;7.00;99.90;;;;;;5142217;28;20035;-73
2022/03/23 07:21:29;;;;;;;13.75;3.20;;;7.10;99.90;;;;;;5142487;28;20044;-73
2022/03/23 07:24:00;;;;;;;20.52;4.07;;;7.20;99.90;;;;;;5142031;28;20034;-73
2022/03/23 07:26:31;;;;;;;16.15;3.53;;;7.20;99.90;;;;;;5141691;28;20402;-74
2022/03/23 07:29:03;;;;;;;19.02;3.60;;;7.30;99.90;;;;;;5142230;28;20027;-76
2022/03/23 07:31:34;;;;;;;15.82;2.90;;;7.30;99.90;;;;;;5125285;28;20038;-74
2022/03/23 07:34:06;;;;;;;20.27;3.15;;;7.30;99.90;;;;;;5142137;28;20030;-74
2022/03/23 07:36:38;;;;;;;14.23;3.58;;;7.40;99.90;;;;;;5121893;28;20081;-75
2022/03/23 07:39:09;;;;;;;13.93;2.80;;;7.40;99.90;;;;;;5142208;28;20030;-73
2022/03/23 07:41:39;;;;;;;14.07;4.40;;;7.20;99.90;;;;;;5143215;28;20475;-80
2022/03/23 07:44:11;;;;;;;34.05;12.55;;;7.20;99.90;;;;;;5141229;28;20026;-74
2022/03/23 07:46:42;;;;;;;18.23;5.35;;;7.20;99.90;;;;;;5140189;28;20034;-74
2022/03/23 07:49:14;;;;;;;16.70;4.50;;;7.20;99.90;;;;;;5142121;28;20497;-75
2022/03/23 07:51:45;;;;;;;20.77;4.40;;;7.20;99.90;;;;;;5123348;28;20035;-73
2022/03/23 07:54:17;;;;;;;21.25;4.45;;;7.30;99.90;;;;;;5142590;28;20039;-75
2022/03/23 07:56:48;;;;;;;14.98;3.83;;;7.30;99.90;;;;;;5142219;28;20054;-75
2022/03/23 07:59:19;;;;;;;20.67;3.40;;;7.20;99.90;;;;;;5143028;28;20074;-74
2022/03/23 08:01:49;;;;;;;10.07;1.90;;;7.30;99.90;;;;;;5143178;28;20261;-74
2022/03/23 08:04:20;;;;;;;13.15;4.35;;;7.30;99.90;;;;;;5143251;28;20045;-75
2022/03/23 08:06:51;;;;;;;14.07;3.00;;;7.40;99.90;;;;;;5142965;28;20039;-73
2022/03/23 08:09:22;;;;;;;25.20;5.95;;;7.60;99.90;;;;;;5143184;28;20967;-75
2022/03/23 08:11:53;;;;;;;15.30;3.47;;;7.70;99.90;;;;;;5141931;28;20094;-74
2022/03/23 08:14:24;;;;;;;21.40;7.65;;;7.60;99.90;;;;;;5123431;28;20046;-74
2022/03/23 08:16:55;;;;;;;15.30;4.30;;;7.60;99.90;;;;;;5142455;28;20121;-75
2022/03/23 08:19:26;;;;;;;13.65;2.80;;;7.50;99.90;;;;;;5142364;28;20109;-75
2022/03/23 08:21:56;;;;;;;12.27;3.20;;;7.50;99.90;;;;;;5123737;28;20035;-74
2022/03/23 08:24:27;;;;;;;10.32;2.50;;;7.70;99.90;;;;;;5122537;28;20042;-73
2022/03/23 08:26:59;;;;;;;15.82;5.28;;;7.90;99.90;;;;;;5125143;28;20044;-73
2022/03/23 08:29:30;;;;;;;16.42;4.68;;;8.10;99.90;;;;;;5141992;28;20027;-73
2022/03/23 08:32:01;;;;;;;17.80;8.65;;;7.70;99.90;;;;;;5142192;28;20041;-72
2022/03/23 08:34:33;;;;;;;27.95;8.88;;;8.10;99.90;;;;;;5144618;28;20114;-73
2022/03/23 08:37:04;;;;;;;10.70;3.28;;;8.40;99.90;;;;;;5144867;28;20033;-74
2022/03/23 08:39:35;;;;;;;13.32;4.75;;;8.60;99.90;;;;;;5145751;28;20026;-73
2022/03/23 08:42:06;;;;;;;10.63;4.53;;;8.40;99.90;;;;;;5145148;28;20018;-73
2022/03/23 08:44:37;;;;;;;15.95;4.10;;;8.70;99.90;;;;;;5144076;28;20027;-73
2022/03/23 08:47:08;;;;;;;10.48;2.63;;;9.10;99.90;;;;;;5143159;28;20031;-73
2022/03/23 08:49:39;;;;;;;17.70;6.70;;;8.30;99.90;;;;;;5125747;28;20387;-74
2022/03/23 08:52:10;;;;;;;12.93;3.30;;;7.70;99.90;;;;;;5144381;28;20027;-73
2022/03/23 08:54:42;;;;;;;11.85;4.00;;;7.50;99.90;;;;;;5125883;28;20587;-74
2022/03/23 08:57:12;;;;;;;13.50;3.67;;;7.70;99.90;;;;;;5143577;28;20039;-73
2022/03/23 08:59:43;;;;;;;8.23;2.40;;;7.60;99.90;;;;;;5144463;28;20460;-74
2022/03/23 09:02:14;;;;;;;13.55;2.55;;;7.70;99.90;;;;;;5144587;28;20556;-73
2022/03/23 09:04:45;;;;;;;14.82;4.57;;;7.50;99.90;;;;;;5126185;28;20046;-74
2022/03/23 09:07:16;;;;;;;11.07;2.05;;;8.20;99.90;;;;;;5145000;28;20041;-73
2022/03/23 09:09:47;;;;;;;9.45;2.25;;;8.40;99.90;;;;;;5145112;28;20526;-74
2022/03/23 09:12:18;;;;;;;14.05;2.15;;;9.00;99.90;;;;;;5145577;28;20097;-73
2022/03/23 09:14:48;;;;;;;7.45;2.00;;;8.60;99.90;;;;;;5127947;28;20446;-73
2022/03/23 09:17:19;;;;;;;8.60;1.85;;;8.20;99.90;;;;;;5145223;28;20026;-74
2022/03/23 09:19:50;;;;;;;11.20;2.38;;;8.70;99.90;;;;;;5145334;28;20035;-73
2022/03/23 09:22:21;;;;;;;5.93;1.88;;;8.40;99.90;;;;;;5128201;28;20525;-74
2022/03/23 09:24:52;;;;;;;9.55;1.88;;;8.30;99.90;;;;;;5144785;28;20047;-74
2022/03/23 09:27:23;;;;;;;11.48;2.03;;;8.50;99.90;;;;;;5142275;28;20035;-73
2022/03/23 09:29:54;;;;;;;6.18;1.70;;;8.10;99.90;;;;;;5144596;28;20438;-74
2022/03/23 09:32:24;;;;;;;11.82;2.05;;;8.50;99.90;;;;;;5144981;28;20039;-73
2022/03/23 09:34:55;;;;;;;10.95;2.22;;;9.20;99.90;;;;;;5126537;28;20130;-74
2022/03/23 09:40:20;;;;;;;5.47;1.42;;;8.50;99.90;;;;;;5145565;28;20037;-73
2022/03/23 09:42:55;;;;;;;7.13;2.67;;;8.80;99.90;;;;;;5127243;28;20118;-74
2022/03/23 09:48:06;;;;;;;5.50;1.75;;;9.00;99.90;;;;;;5144022;28;20562;-73
2022/03/23 09:50:44;;;;;;;12.07;4.18;;;9.20;99.90;;;;;;5144203;28;20054;-74
2022/03/23 09:53:16;;;;;;;13.80;3.53;;;8.70;99.90;;;;;;5143087;28;20027;-73
2022/03/23 09:55:49;;;;;;;11.60;2.20;;;8.50;99.90;;;;;;5144951;28;20479;-73
2022/03/23 09:58:21;;;;;;;9.93;1.98;;;8.40;99.90;;;;;;5143996;28;20040;-73
2022/03/23 10:00:52;;;;;;;15.82;2.40;;;8.20;99.90;;;;;;5143057;28;20082;-76
2022/03/23 10:03:51;;;;;;;10.27;2.40;;;8.30;99.90;;;;;;5144533;28;20074;-74
2022/03/23 10:06:43;;;;;;;14.43;2.17;;;8.10;99.90;;;;;;5145013;28;20117;-75
2022/03/23 10:09:38;;;;;;;9.10;2.13;;;8.10;99.90;;;;;;5143016;28;20546;-73
2022/03/23 10:12:46;;;;;;;8.95;1.80;;;7.70;99.90;;;;;;5143354;28;20122;-74
2022/03/23 10:15:54;;;;;;;10.68;2.13;;;7.80;99.90;;;;;;5144570;28;20211;-74
2022/03/23 10:18:49;;;;;;;16.47;2.37;;;7.80;99.90;;;;;;5143914;28;20078;-74
2022/03/23 10:21:22;;;;;;;12.45;2.67;;;8.40;99.90;;;;;;5143924;28;20030;-74
2022/03/23 10:24:02;;;;;;;10.63;2.50;;;8.90;99.90;;;;;;5142947;28;20030;-75
2022/03/23 10:26:38;;;;;;;9.43;2.50;;;9.00;99.90;;;;;;5141521;28;20030;-71
2022/03/23 10:29:24;;;;;;;8.20;2.30;;;8.30;99.90;;;;;;5143044;28;20030;-74
2022/03/23 10:32:08;;;;;;;10.27;2.55;;;8.30;99.90;;;;;;5143407;28;20035;-74
2022/03/23 10:34:53;;;;;;;19.40;3.80;;;8.50;99.90;;;;;;5140520;28;20054;-74
2022/03/23 10:37:28;;;;;;;12.52;2.20;;;8.70;99.90;;;;;;5143552;28;20402;-73
2022/03/23 10:40:03;;;;;;;10.70;2.60;;;8.60;99.90;;;;;;5143192;28;20018;-72
2022/03/23 10:42:40;;;;;;;8.20;2.47;;;8.50;99.90;;;;;;5143408;28;20471;-73
2022/03/23 10:45:22;;;;;;;9.32;2.28;;;8.50;99.90;;;;;;5143402;28;20040;-73
2022/03/23 10:47:53;;;;;;;13.18;2.95;;;8.50;99.90;;;;;;5143083;28;20035;-73
2022/03/23 10:50:26;;;;;;;9.18;2.70;;;8.60;99.90;;;;;;5144158;28;20031;-73
2022/03/23 10:53:02;;;;;;;9.38;2.17;;;8.90;99.90;;;;;;5141154;28;20031;-74
2022/03/23 10:55:38;;;;;;;14.68;2.38;;;9.60;99.90;;;;;;5143148;28;20424;-74
2022/03/23 10:58:25;;;;;;;12.68;2.72;;;9.90;99.90;;;;;;5125752;28;20113;-73
2022/03/23 11:01:00;;;;;;;11.35;2.00;;;9.70;99.90;;;;;;5139821;28;20506;-74
2022/03/23 11:03:34;;;;;;;7.07;1.48;;;9.00;99.90;;;;;;5142387;28;20026;-72
2022/03/23 11:06:13;;;;;;;11.60;2.28;;;9.30;99.90;;;;;;5141674;28;20066;-73
2022/03/23 11:08:47;;;;;;;18.73;2.17;;;8.80;99.90;;;;;;5140577;28;20059;-72
2022/03/23 11:16:58;;;;;;;16.48;3.17;;;8.50;99.90;;;;;;5142346;28;20030;-73
2022/03/23 11:19:29;;;;;;;8.27;2.03;;;9.30;99.90;;;;;;5141987;28;20065;-73
2022/03/23 11:22:12;;;;;;;10.02;2.92;;;9.40;99.90;;;;;;5140955;28;20145;-74
2022/03/23 11:24:46;;;;;;;24.10;2.47;;;9.30;99.90;;;;;;5137673;28;20023;-74
2022/03/23 11:27:18;;;;;;;11.13;1.73;;;9.30;99.90;;;;;;5116589;29;20054;-75
2022/03/23 11:29:51;;;;;;;7.82;1.83;;;8.00;99.90;;;;;;5144174;28;20054;-73
2022/03/23 11:32:28;;;;;;;14.15;3.58;;;8.10;99.90;;;;;;5143371;28;20039;-74
2022/03/23 11:35:02;;;;;;;9.57;1.90;;;8.10;99.90;;;;;;5145850;28;20058;-74
2022/03/23 11:37:37;;;;;;;16.60;5.30;;;8.10;99.90;;;;;;5128778;28;20034;-75
2022/03/23 11:40:09;;;;;;;14.82;3.35;;;8.30;99.90;;;;;;5146188;28;20023;-74
2022/03/23 11:42:40;;;;;;;11.30;2.40;;;8.70;99.90;;;;;;5146093;28;20019;-75
2022/03/23 11:45:13;;;;;;;13.10;2.70;;;8.40;99.90;;;;;;5124672;28;20039;-73
2022/03/23 11:48:01;;;;;;;8.77;2.45;;;8.50;99.90;;;;;;5136916;28;20027;-73
2022/03/23 11:51:05;;;;;;;17.30;2.63;;;8.60;99.90;;;;;;5138399;28;20073;-73
2022/03/23 11:53:55;;;;;;;11.57;2.53;;;8.40;99.90;;;;;;5138294;28;20023;-73
2022/03/23 11:56:35;;;;;;;20.25;3.40;;;8.20;99.90;;;;;;5127730;28;20026;-73
2022/03/23 11:59:28;;;;;;;12.82;2.70;;;8.30;99.90;;;;;;5144893;28;20034;-73
2022/03/23 12:01:59;;;;;;;17.98;2.42;;;7.80;99.90;;;;;;5144998;28;20046;-73
2022/03/23 12:04:30;;;;;;;17.60;2.38;;;8.00;99.90;;;;;;5139564;28;20065;-72
2022/03/23 12:07:05;;;;;;;14.43;5.10;;;7.70;99.90;;;;;;5145820;28;20495;-73
2022/03/23 12:09:41;;;;;;;19.05;5.65;;;8.60;99.90;;;;;;5149901;28;20023;-73
2022/03/23 12:12:30;;;;;;;12.63;3.17;;;9.40;99.90;;;;;;5149462;28;20027;-73
2022/03/23 12:15:21;;;;;;;13.80;4.05;;;9.10;99.90;;;;;;5114241;29;20125;-73
2022/03/23 12:17:54;;;;;;;19.80;3.53;;;8.40;99.90;;;;;;5129755;29;20546;-73
2022/03/23 12:20:40;;;;;;;18.60;8.07;;;8.50;99.90;;;;;;5129769;29;20023;-72
2022/03/23 12:23:16;;;;;;;13.60;4.82;;;9.00;99.90;;;;;;5112814;29;20538;-73
2022/03/23 12:26:37;;;;;;;11.60;2.95;;;9.80;99.90;;;;;;5112594;29;20488;-73
2022/03/23 12:29:23;;;;;;;15.23;2.08;;;9.10;99.90;;;;;;5048904;29;20060;-73
2022/03/23 12:32:08;;;;;;;14.68;3.63;;;8.60;99.90;;;;;;5142673;28;20047;-73
2022/03/23 12:34:47;;;;;;;18.33;3.28;;;8.80;99.90;;;;;;5149233;28;20031;-73
2022/03/23 12:37:19;;;;;;;10.52;2.28;;;9.60;99.90;;;;;;5131403;28;20031;-74
2022/03/23 12:39:51;;;;;;;15.57;2.47;;;9.20;99.90;;;;;;5149047;28;20113;-73
2022/03/23 12:42:30;;;;;;;20.25;2.85;;;9.30;99.90;;;;;;5149006;28;20098;-73
2022/03/23 12:45:07;;;;;;;17.60;2.42;;;8.20;99.90;;;;;;5131475;28;20390;-74
2022/03/23 12:47:52;;;;;;;12.68;1.90;;;7.90;99.90;;;;;;5144343;28;20478;-75
2022/03/23 12:59:21;;;;;;;12.85;2.33;;;8.30;99.90;;;;;;5148616;28;20031;-74
2022/03/23 13:02:28;;;;;;;12.15;1.90;;;8.50;99.90;;;;;;5148875;28;20051;-75
2022/03/23 13:05:00;;;;;;;18.25;2.33;;;8.20;99.90;;;;;;5146776;28;20579;-73
2022/03/23 13:07:31;;;;;;;9.88;1.77;;;8.10;99.90;;;;;;5148809;28;20039;-73
2022/03/23 13:10:13;;;;;;;24.17;2.70;;;8.70;99.90;;;;;;5148695;28;20027;-73
2022/03/23 13:12:47;;;;;;;14.20;2.85;;;8.30;99.90;;;;;;5148699;28;20077;-73
2022/03/23 13:15:19;;;;;;;22.02;3.08;;;8.10;99.90;;;;;;5133041;28;20031;-73
2022/03/23 13:17:50;;;;;;;21.77;3.42;;;8.40;99.90;;;;;;5148284;28;20119;-73
2022/03/23 13:20:21;;;;;;;16.52;2.53;;;8.50;99.90;;;;;;5148574;28;20110;-73
2022/03/23 13:22:53;;;;;;;13.75;2.40;;;8.00;99.90;;;;;;5131109;28;20026;-75
2022/03/23 13:25:24;;;;;;;15.75;3.00;;;7.80;99.90;;;;;;5148193;28;20035;-75
2022/03/23 13:27:55;;;;;;;20.20;3.88;;;8.10;99.90;;;;;;5130952;28;20030;-74
2022/03/23 13:30:26;;;;;;;19.30;2.53;;;8.30;99.90;;;;;;5130523;28;20067;-74
2022/03/23 13:32:59;;;;;;;27.48;3.00;;;8.30;99.90;;;;;;5147997;28;20034;-76
2022/03/23 13:35:29;;;;;;;21.63;3.53;;;8.70;99.90;;;;;;5130926;28;20547;-75
2022/03/23 13:38:07;;;;;;;21.25;3.03;;;8.30;99.90;;;;;;5130599;28;20191;-76
2022/03/23 13:43:34;;;;;;;21.65;3.00;;;8.10;99.90;;;;;;5148383;28;20035;-76
2022/03/23 13:46:05;;;;;;;21.73;2.30;;;7.80;99.90;;;;;;5148124;28;20034;-76